Cedar Grove, North Carolina
Current Conditions -  °F | °C
As of 8:55 AM on Thursday 23 Oct 2014 (Local Time) from KSIF Reporting Station
Clear Clear  
Wind Chill: 46°   Ceiling: Unl
Heat Index: 46°   Visibility: 10mi
Dew Point: 46°   Wind: 0mph
Humidity: 99%   Direction: NA
Pressure: 30.05"   Gusts: NA
Location:  36.5°N, 79.73°W
Report Text: KSIF 231255Z AUTO 00000KT 10SM CLR 08/08 A3005 RMK AO2 T00770076
Loading
Personal Weather Stations






























Interactive Weather Map
Tropical Storm Tracking
New forecast layout! Learn more

10-Day Weather Forecast

Advertisements
Track Severe Weather on mobile